METAR Data
IDs: Format: Raw Decoded Include TAF

Data at: 1814 UTC 21 Sep 2018

KT35 211755Z AUTO 18010G14KT 10SM BKN030 BKN039 30/24 A2995 RMK AO2 LTG DSNT E AND SE T03040238 10304 20251
KT35 211735Z AUTO 19010G14KT 10SM SCT028 SCT033 BKN039 30/24 A2996 RMK AO2 T03030241
KT35 211715Z AUTO 18011KT 10SM SCT028 SCT033 BKN040 30/24 A2997 RMK AO2 T03020236
KT35 211655Z AUTO 18010G16KT 10SM SCT020 SCT029 BKN035 30/24 A2997 RMK AO2 T02980242
KT35 211635Z AUTO 18010G14KT 10SM BKN020 29/25 A2997 RMK AO2 LTG DSNT SE T02920245
KT35 211615Z AUTO 18010G14KT 10SM BKN018 BKN023 29/25 A2997 RMK AO2 T02900250
KT35 211555Z AUTO 17010G15KT 10SM BKN013 BKN019 28/25 A2997 RMK AO2 T02800249
KT35 211535Z AUTO 17007KT 10SM BKN011 BKN019 28/25 A2997 RMK AO2 T02750252
KT35 211515Z AUTO 15005KT 10SM BKN011 OVC018 27/26 A2997 RMK AO2 T02730255
KT35 211455Z AUTO 16005KT 10SM OVC009 27/25 A2997 RMK AO2 T02670253
KT35 211435Z AUTO 17005KT 10SM OVC007 27/25 A2996 RMK AO2 T02650253
KT35 211415Z AUTO 16005KT 10SM OVC007 26/25 A2996 RMK AO2 T02630254
KT35 211355Z AUTO 15006KT 10SM OVC007 26/25 A2996 RMK AO2 T02610253
KT35 211335Z AUTO 14006KT 10SM OVC007 26/25 A2995 RMK AO2 T02570251
KT35 211315Z AUTO 15004KT 7SM OVC005 26/25 A2995 RMK AO2 T02550250
KT35 211255Z AUTO 14003KT 7SM OVC007 25/25 A2995 RMK AO2 T02540249
KT35 211235Z AUTO 14004KT 7SM OVC007 25/25 A2994 RMK AO2 T02530248
KT35 211215Z AUTO 14004KT 7SM OVC007 25/25 A2994 RMK AO2 T02510247
KT35 211155Z AUTO 13003KT 7SM OVC007 25/25 A2994 RMK AO2 60003 70065 T02520247 10252 20235
KT35 211135Z AUTO 00000KT 7SM OVC007 25/25 A2994 RMK AO2 T02510246
KT35 211115Z AUTO 00000KT 7SM -RA OVC007 25/25 A2994 RMK AO2 T02500245
KT35 211055Z AUTO 00000KT 7SM OVC007 25/25 A2994 RMK AO2 P0001 T02500245
KT35 211035Z AUTO 00000KT 7SM OVC009 25/25 A2993 RMK AO2 P0001 T02500245
KT35 211015Z AUTO 13003KT 7SM -DZ OVC009 25/24 A2993 RMK AO2 T02480243
KT35 210955Z AUTO 13003KT 7SM -RA OVC009 25/24 A2993 RMK AO2 T02480243
KT35 210935Z AUTO 14003KT 10SM OVC009 25/24 A2993 RMK AO2 T02470242
KT35 210915Z AUTO 00000KT 10SM OVC007 25/24 A2993 RMK AO2 T02470242
KT35 210855Z AUTO 14003KT 10SM OVC007 25/24 A2993 RMK AO2 P0001 60002 T02460240
KT35 210835Z AUTO 14003KT 10SM -RA BKN007 OVC028 25/24 A2993 RMK AO2 P0001 T02450240
KT35 210815Z AUTO 15004KT 7SM -RA BKN007 BKN013 OVC060 25/24 A2993 RMK AO2 P0001 T02450240
KT35 210755Z AUTO 16006KT 10SM -RA SCT007 SCT015 SCT060 25/24 A2993 RMK AO2 P0001 T02450238
KT35 210735Z AUTO 16005KT 10SM DZ CLR 24/24 A2993 RMK AO2 T02420236
KT35 210715Z AUTO 14005KT 10SM -DZ CLR 24/24 A2994 RMK AO2 T02420235
KT35 210655Z AUTO 15004KT 10SM SCT019 24/24 A2994 RMK AO2 T02410235
KT35 210635Z AUTO 15004KT 10SM SCT019 SCT110 24/23 A2994 RMK AO2 T02390231
KT35 210615Z AUTO 15004KT 10SM -RA CLR 24/23 A2994 RMK AO2 T02360230
KT35 210555Z AUTO 15003KT 10SM CLR 24/23 A2995 RMK AO2 60001 T02350228 10235 20223 403170223
KT35 210535Z AUTO 14003KT 10SM CLR 23/23 A2996 RMK AO2 T02330227
KT35 210515Z AUTO 13003KT 10SM CLR 23/23 A2996 RMK AO2 T02320227
KT35 210455Z AUTO 00000KT 10SM SCT100 23/23 A2996 RMK AO2 T02320226
KT35 210435Z AUTO 00000KT 10SM SCT018 OVC100 23/23 A2996 RMK AO2 T02320226
KT35 210415Z AUTO 10003KT 10SM SCT018 OVC100 23/23 A2996 RMK AO2 T02320226
KT35 210355Z AUTO 00000KT 10SM OVC100 23/23 A2996 RMK AO2 T02320225
KT35 210335Z AUTO 00000KT 10SM OVC100 23/23 A2996 RMK AO2 T02330225
KT35 210315Z AUTO 00000KT 10SM OVC100 23/23 A2996 RMK AO2 T02330225
KT35 210250Z AUTO 00000KT 10SM SCT029 OVC100 24/23 A2995 RMK AO2 P0001 60001 T02350225
KT35 210235Z AUTO 00000KT 10SM -DZ SCT029 BKN090 OVC110 23/22 A2995 RMK AO2 P0001 T02320223
KT35 210215Z AUTO 00000KT 10SM -RA SCT030 SCT070 BKN100 23/22 A2995 RMK AO2 T02310222
KT35 210155Z AUTO 00000KT 10SM -RA SCT020 SCT070 SCT090 23/22 A2995 RMK AO2 T02300220
KT35 210135Z AUTO 00000KT 10SM SCT080 BKN110 23/22 A2994 RMK AO2 T02300220
KT35 210115Z AUTO 16004KT 10SM SCT090 23/22 A2994 RMK AO2 T02310218
KT35 210055Z AUTO 13003KT 10SM SCT041 SCT060 SCT120 23/21 A2994 RMK AO2 T02250214
KT35 210035Z AUTO 00000KT 10SM SCT120 23/22 A2995 RMK AO2 LTG DSNT N THRU SE T02260215
KT35 210015Z AUTO 16003KT 10SM -TSDZ SCT100 23/22 A2993 RMK AO2 LTG DSNT NE THRU SE T02250216
KT35 202355Z AUTO 17004KT 10SM -VCTSRA SCT022 SCT039 BKN080 22/21 A2992 RMK AO2 LTG DSNT SE AND NW P0016 60061 T02230214 10306 20223
KT35 202335Z AUTO 21016G25KT 5SM +TSRA SCT019 SCT030 BKN050 24/22 A2993 RMK AO2 LTG DSNT ALQS P0006 T02390216
KT35 202315Z AUTO 10007KT 10SM TS SCT065 SCT090 27/22 A2990 RMK AO2 LTG DSNT S THRU NW T02680222
KT35 202255Z AUTO 10009G14KT 10SM SCT065 SCT100 27/22 A2990 RMK AO2 LTG DSNT SW AND W T02710216
KT35 202235Z AUTO 12006KT 10SM VCTS SCT090 29/22 A2990 RMK AO2 LTG DSNT SW T02850220
KT35 202215Z AUTO 12007KT 10SM SCT090 29/24 A2990 RMK AO2 LTG DSNT SW T02860241
KT35 202155Z AUTO 13010KT 10SM CLR 29/24 A2990 RMK AO2 LTG DSNT E SW AND NW T02900239
KT35 202135Z AUTO 12006KT 10SM CLR 29/24 A2989 RMK AO2 T02900244
KT35 202115Z AUTO 13004KT 10SM CLR 28/23 A2990 RMK AO2 LTG DSNT E T02820234
KT35 202055Z AUTO 12003KT 10SM CLR 26/22 A2990 RMK AO2 LTG DSNT E SW AND W P0002 60045 T02630220
KT35 202035Z AUTO 00000KT 10SM -VCTSRA SCT033 SCT047 SCT060 25/21 A2991 RMK AO2 LTG DSNT ALQS P0002 T02470213
KT35 202015Z AUTO 10004KT 7SM RA SCT028 BKN035 BKN046 24/22 A2991 RMK AO2 LTG DSNT W THRU NE P0001 T02440220
KT35 201955Z AUTO 17009G14KT 2SM -TSRA SCT018 BKN023 OVC038 24/22 A2995 RMK AO2 LTG DSNT ALQS P0043 T02380221
KT35 201935Z AUTO 17015G20KT 7SM -TSRA SCT030 BKN038 BKN046 26/23 A2997 RMK AO2 LTG DSNT ALQS P0005 T02620228
KT35 201915Z AUTO 15004KT 10SM TS SCT044 SCT050 30/23 A2994 RMK AO2 LTG DSNT SE S AND NW T03020233
KT35 201855Z AUTO 14004KT 10SM VCTS CLR 29/23 A2994 RMK AO2 LTG DSNT ALQS T02940232
KT35 201835Z AUTO 16006KT 10SM VCTS CLR 29/23 A2995 RMK AO2 LTG DSNT SE THRU NW T02940227
KT35 201815Z AUTO 17006KT 10SM VCTS SCT032 SCT039 SCT047 30/23 A2996 RMK AO2 LTG DSNT SW THRU NW T03010226
KT35 201755Z AUTO 15008KT 10SM SCT030 SCT041 SCT047 31/23 A2996 RMK AO2 LTG DSNT S AND SW T03060227 10317 20241
KT35 201735Z AUTO 19008KT 10SM VCTS SCT021 30/23 A2997 RMK AO2 LTG DSNT SW T03020230
KT35 201715Z AUTO 16007KT 10SM SCT019 SCT025 29/24 A2998 RMK AO2 LTG DSNT SW T02940240
KT35 201655Z AUTO 16006KT 10SM BKN019 29/24 A2999 RMK AO2 LTG DSNT SW T02900242
KT35 201635Z AUTO 18005KT 10SM BKN017 29/24 A2999 RMK AO2 T02860242
KT35 201615Z AUTO 17006KT 10SM SCT015 28/24 A2999 RMK AO2 T02820243
KT35 201555Z AUTO 18008KT 10SM SCT015 28/24 A2999 RMK AO2 T02810243
KT35 201535Z AUTO 18008KT 10SM SCT015 28/24 A2999 RMK AO2 LTG DSNT SW T02810242
KT35 201515Z AUTO 19009KT 10SM SCT015 28/24 A2999 RMK AO2 T02800241
KT35 201455Z AUTO 19007KT 10SM CLR 28/24 A2998 RMK AO2 T02750240
KT35 201435Z AUTO 19007KT 10SM CLR 27/24 A2998 RMK AO2 T02720240
KT35 201415Z AUTO 18008KT 10SM CLR 27/24 A2997 RMK AO2 T02740240
KT35 201355Z AUTO 18008KT 10SM CLR 27/24 A2997 RMK AO2 T02710242
KT35 201335Z AUTO 18009KT 10SM CLR 26/24 A2996 RMK AO2 T02610240
KT35 201315Z AUTO 17004KT 10SM CLR 26/24 A2996 RMK AO2 T02560238
KT35 201255Z AUTO 18004KT 10SM CLR 25/24 A2996 RMK AO2 T02460235
KT35 201235Z AUTO 18005KT 10SM CLR 24/23 A2995 RMK AO2 T02420233
KT35 201215Z AUTO 18007KT 10SM CLR 24/23 A2995 RMK AO2 T02410232
KT35 201155Z AUTO 17006KT 10SM CLR 24/23 A2994 RMK AO2 LTG DSNT SW T02410232 10255 20237
KT35 201135Z AUTO 18006KT 10SM CLR 24/23 A2994 RMK AO2 T02400231
KT35 201115Z AUTO 17005KT 10SM CLR 24/23 A2994 RMK AO2 T02400230
KT35 201055Z AUTO 18005KT 10SM CLR 24/23 A2993 RMK AO2 T02400230
KT35 201035Z AUTO 19005KT 10SM CLR 24/23 A2993 RMK AO2 T02400230
KT35 201015Z AUTO 17004KT 10SM CLR 24/23 A2993 RMK AO2 T02400229
KT35 200955Z AUTO 16004KT 10SM CLR 24/23 A2993 RMK AO2 T02370227
KT35 200935Z AUTO 00000KT 10SM CLR 24/23 A2993 RMK AO2 T02390226
KT35 200915Z AUTO 15004KT 10SM CLR 25/23 A2994 RMK AO2 T02450230
KT35 200855Z AUTO 20005KT 10SM CLR 24/23 A2994 RMK AO2 T02440227
KT35 200835Z AUTO 00000KT 10SM CLR 25/23 A2995 RMK AO2 T02460227
KT35 200815Z AUTO 19005KT 10SM CLR 25/23 A2994 RMK AO2 T02470226
KT35 200755Z AUTO 20006KT 10SM CLR 25/23 A2994 RMK AO2 T02450226
KT35 200735Z AUTO 19005KT 10SM CLR 25/23 A2995 RMK AO2 T02460225
KT35 200715Z AUTO 19006KT 10SM CLR 25/23 A2995 RMK AO2 T02500225
KT35 200655Z AUTO 19007KT 10SM CLR 25/23 A2995 RMK AO2 T02530225
KT35 200635Z AUTO 19007KT 10SM CLR 26/22 A2995 RMK AO2 T02550223
KT35 200615Z AUTO 20009KT 10SM CLR 26/22 A2996 RMK AO2 T02550223